Nautilus — OUYX2 — position and weather

sailwx.info

Track history (hours):
 
Tides and Currents Weather Stations Pressure Air Temp Water Temp Dewpoint Dewpoint Depression Visibility Wind Speed Wind Dir Waves Ship Positions

Nautilus

Last reported at 2015-Jul-31 08:33 UTC. Time now 2015-Jul-31 09:23 UTC.
Position N 54°13' E 012°05'.

Length 120 m; draft 5.6 m.

Type: Ship. MMSI: 219425000.

Date/timePositionNaut miles runAvg speedWind from/ knotsBaromVisibWave heightAir tempDewpointWater temp
2015-Jul-31 08:33N 54°13' E 012°05'4 4.4
2015-Jul-31 07:33N 54°09' E 012°08'0 0.0
2015-Jul-31 06:16N 54°09' E 012°08'0 0.0
2015-Jul-31 05:10N 54°09' E 012°08'0 0.0
2015-Jul-31 04:31N 54°09' E 012°08'0 0.0
2015-Jul-31 03:22N 54°09' E 012°08'0 0.0
2015-Jul-31 01:22N 54°09' E 012°08'0 0.0
2015-Jul-31 00:31N 54°09' E 012°08'0 0.0
2015-Jul-30 23:19N 54°09' E 012°08'0 0.0
2015-Jul-30 21:25N 54°09' E 012°08'0 0.0
2015-Jul-30 20:31N 54°09' E 012°08'0 0.0
2015-Jul-30 19:28N 54°09' E 012°08'0 0.0
2015-Jul-30 18:31N 54°09' E 012°08'0 0.0
2015-Jul-30 17:19N 54°09' E 012°08'0 0.0
2015-Jul-30 16:16N 54°09' E 012°08'0 0.0
2015-Jul-30 15:16N 54°09' E 012°08'0 0.0
2015-Jul-30 14:25N 54°09' E 012°08'0 0.0
2015-Jul-30 13:28N 54°09' E 012°08'0 0.0
2015-Jul-30 12:31N 54°09' E 012°08'0 0.0
2015-Jul-30 11:31N 54°09' E 012°08'0 0.0
2015-Jul-30 10:22N 54°09' E 012°08'0 0.2
2015-Jul-30 09:33N 54°10' E 012°08'8 8.1
2015-Jul-30 08:33N 54°17' E 012°01'9 9.3
2015-Jul-30 07:33N 54°26' E 012°00'9 9.3
2015-Jul-30 06:33N 54°32' E 012°13'6012.0
2015-Jul-30 01:33N 55°00' E 013°44'1212.2
2015-Jul-30 00:33N 55°04' E 014°04'1212.2
2015-Jul-29 23:33N 55°13' E 014°18'1212.4
2015-Jul-29 22:33N 55°23' E 014°32'1212.4
2015-Jul-29 21:33N 55°30' E 014°49'1212.3
2015-Jul-29 20:33N 55°36' E 015°08'12811.6
2015-Jul-29 09:33N 57°16' E 017°32'16312.5
2015-Jul-28 20:33N 59°43' E 019°46'1312.8
2015-Jul-28 19:33N 59°53' E 019°30'165 3.6
2015-Jul-26 21:33N 57°18' E 017°40'12711.5
2015-Jul-26 10:32N 55°38' E 015°21'1212.6
2015-Jul-26 09:33N 55°31' E 015°02'1212.5
2015-Jul-26 08:33N 55°25' E 014°43'1212.0
2015-Jul-26 07:33N 55°17' E 014°28'1111.4
2015-Jul-26 06:33N 55°11' E 014°12'1313.1
2015-Jul-26 05:33N 55°11' E 013°49'1513.2
2015-Jul-26 04:27N 55°12' E 013°23'1212.9
2015-Jul-26 03:33N 55°13' E 013°03'1312.8
2015-Jul-26 02:33N 55°17' E 012°42'1010.3
2015-Jul-26 01:33N 55°27' E 012°40'1010.5
2015-Jul-26 00:33N 55°36' E 012°51'9 9.2
2015-Jul-25 23:33N 55°45' E 012°51'1110.6
2015-Jul-25 22:34N 55°55' E 012°45'1111.0
2015-Jul-25 21:33N 56°05' E 012°36'1010.4
2015-Jul-25 20:33N 56°13' E 012°25'1312.5
2015-Jul-25 19:33N 56°25' E 012°18'1312.5
2015-Jul-25 18:33N 56°37' E 012°12'1212.1
2015-Jul-25 17:33N 56°49' E 012°07'1212.0
2015-Jul-25 16:32N 57°00' E 012°01'1212.5
2015-Jul-25 15:33N 57°12' E 011°54'1312.6
2015-Jul-25 14:33N 57°24' E 011°44'9 9.1
2015-Jul-25 13:34N 57°32' E 011°37'1111.1
2015-Jul-25 12:33N 57°41' E 011°50'2 1.5
2015-Jul-25 11:32N 57°41' E 011°52'0 0.0
2015-Jul-25 10:32N 57°41' E 011°52'0 0.0
2015-Jul-25 09:32N 57°41' E 011°52'0 0.0
2015-Jul-25 08:32N 57°41' E 011°52'0 0.0
2015-Jul-25 07:32N 57°41' E 011°52'0 0.0
2015-Jul-25 06:32N 57°41' E 011°52'0 0.0
2015-Jul-25 05:32N 57°41' E 011°52'0 0.0
2015-Jul-25 04:32N 57°41' E 011°52'0 0.0
2015-Jul-25 03:32N 57°41' E 011°52'0 0.0
2015-Jul-25 02:32N 57°41' E 011°52'0 0.0
2015-Jul-25 01:29N 57°41' E 011°52'0 0.0
2015-Jul-25 00:32N 57°41' E 011°52'0 0.0
2015-Jul-24 23:32N 57°41' E 011°52'0 0.0
2015-Jul-24 22:32N 57°41' E 011°52'0 0.0
2015-Jul-24 21:32N 57°41' E 011°52'0 0.0
2015-Jul-24 20:32N 57°41' E 011°52'0 0.0
2015-Jul-24 19:32N 57°41' E 011°52'0 0.0
2015-Jul-24 18:32N 57°41' E 011°52'0 0.0
2015-Jul-24 17:32N 57°41' E 011°52'0 0.0
2015-Jul-24 16:32N 57°41' E 011°52'3 3.1
2015-Jul-24 15:33N 57°41' E 011°47'3 2.9
2015-Jul-24 14:31N 57°41' E 011°41'0 0.0
2015-Jul-24 13:31N 57°41' E 011°41'0 0.0
2015-Jul-24 12:31N 57°41' E 011°41'0 0.0
2015-Jul-24 11:31N 57°41' E 011°41'0 0.0
2015-Jul-24 10:31N 57°41' E 011°41'0 0.0
2015-Jul-24 09:31N 57°41' E 011°41'0 0.0
2015-Jul-24 08:31N 57°41' E 011°41'0 0.0
2015-Jul-24 07:31N 57°41' E 011°41'0 0.0
2015-Jul-24 06:31N 57°41' E 011°41'0 0.0
2015-Jul-24 05:31N 57°41' E 011°41'0 0.0
2015-Jul-24 04:31N 57°41' E 011°41'0 0.0
2015-Jul-24 03:31N 57°41' E 011°41'0 0.0
2015-Jul-24 02:31N 57°41' E 011°41'0 0.0
2015-Jul-24 01:31N 57°41' E 011°41'0 0.0
2015-Jul-24 00:31N 57°41' E 011°41'0 0.0
2015-Jul-23 23:31N 57°41' E 011°41'0 0.0
2015-Jul-23 22:31N 57°41' E 011°41'0 0.0
2015-Jul-23 21:31N 57°41' E 011°41'0 0.0
2015-Jul-23 20:31N 57°41' E 011°41'0 0.0
2015-Jul-23 19:31N 57°41' E 011°41'0 0.0
2015-Jul-23 18:31N 57°41' E 011°41'0 0.0
2015-Jul-23 17:31N 57°41' E 011°41'0 0.0
2015-Jul-23 16:31N 57°41' E 011°41'0 0.0
2015-Jul-23 15:31N 57°41' E 011°41'0 0.0
2015-Jul-23 14:31N 57°41' E 011°41'0 0.0
2015-Jul-23 13:31N 57°41' E 011°41'0 0.0
2015-Jul-23 12:31N 57°41' E 011°41'0 0.0
2015-Jul-23 11:31N 57°41' E 011°41'0 0.0
2015-Jul-23 10:31N 57°41' E 011°41'0 0.0
2015-Jul-23 09:31N 57°41' E 011°41'0 0.0
2015-Jul-23 08:31N 57°41' E 011°41'0 0.0
2015-Jul-23 07:31N 57°41' E 011°41'0 0.0
2015-Jul-23 06:31N 57°41' E 011°41'0 0.0
2015-Jul-23 05:31N 57°41' E 011°41'0 0.0
2015-Jul-23 04:31N 57°41' E 011°41'0 0.0
2015-Jul-23 03:31N 57°41' E 011°41'0 0.0
2015-Jul-23 02:31N 57°41' E 011°41'0 0.0
2015-Jul-23 01:31N 57°41' E 011°41'0 0.0
2015-Jul-23 00:31N 57°41' E 011°41'0 0.0
2015-Jul-22 23:31N 57°41' E 011°41'0 0.0
2015-Jul-22 22:31N 57°41' E 011°41'0 0.1
2015-Jul-22 21:31N 57°41' E 011°41'0 0.0
2015-Jul-22 20:31N 57°41' E 011°41'0 0.0
2015-Jul-22 19:31N 57°41' E 011°41'0 0.0
2015-Jul-22 18:31N 57°41' E 011°41'0 0.0
2015-Jul-22 17:31N 57°41' E 011°41'0 0.0
2015-Jul-22 16:31N 57°41' E 011°41'3 3.1
2015-Jul-22 15:34N 57°41' E 011°47'3 3.2
2015-Jul-22 14:31N 57°41' E 011°53'0 0.0
2015-Jul-22 13:31N 57°41' E 011°53'0 0.0
2015-Jul-22 12:31N 57°41' E 011°53'0 0.0
2015-Jul-22 11:31N 57°41' E 011°53'0 0.0
2015-Jul-22 10:31N 57°41' E 011°53'0 0.0
2015-Jul-22 09:31N 57°41' E 011°53'0 0.0
2015-Jul-22 08:31N 57°41' E 011°53'0 0.0
2015-Jul-22 07:31N 57°41' E 011°53'0 0.0
2015-Jul-22 06:31N 57°41' E 011°53'0 0.0
2015-Jul-22 05:31N 57°41' E 011°53'0 0.0
2015-Jul-22 04:31N 57°41' E 011°53'0 0.0
2015-Jul-22 03:31N 57°41' E 011°53'0 0.0
2015-Jul-22 02:31N 57°41' E 011°53'0 0.0
2015-Jul-22 01:31N 57°41' E 011°53'0 0.0
2015-Jul-22 00:31N 57°41' E 011°53'0 0.0
2015-Jul-21 23:31N 57°41' E 011°53'0 0.0
2015-Jul-21 22:31N 57°41' E 011°53'0 0.0
2015-Jul-21 21:31N 57°41' E 011°53'0 0.0
2015-Jul-21 20:31N 57°41' E 011°53'0 0.0
2015-Jul-21 19:31N 57°41' E 011°53'0 0.0
2015-Jul-21 18:31N 57°41' E 011°53'0 0.0
2015-Jul-21 17:31N 57°41' E 011°53'0 0.0
2015-Jul-21 16:31N 57°41' E 011°53'0 0.0
2015-Jul-21 15:32N 57°41' E 011°53'5 4.7
2015-Jul-21 14:33N 57°39' E 011°45'8 8.3
2015-Jul-21 13:33N 57°42' E 011°30'1312.9
2015-Jul-21 12:33N 57°53' E 011°20'1211.9
2015-Jul-21 11:34N 58°05' E 011°15'1111.2
2015-Jul-21 10:33N 58°16' E 011°15'8 7.8
2015-Jul-21 09:33N 58°21' E 011°26'  
Track history (hours):
 
Tides and Currents Weather Stations Pressure Air Temp Water Temp Dewpoint Dewpoint Depression Visibility Wind Speed Wind Dir Waves Ship Positions

Nautilus

Last reported at 2015-Jul-31 08:33 UTC. Time now 2015-Jul-31 09:23 UTC.
Position N 54°13' E 012°05'.

Length 120 m; draft 5.6 m.

Type: Ship. MMSI: 219425000.

Date/timePositionNaut miles runAvg speedWind from/ knotsBaromVisibWave heightAir tempDewpointWater temp
2015-Jul-31 08:33N 54°13' E 012°05'4 4.4
2015-Jul-31 07:33N 54°09' E 012°08'0 0.0
2015-Jul-31 06:16N 54°09' E 012°08'0 0.0
2015-Jul-31 05:10N 54°09' E 012°08'0 0.0
2015-Jul-31 04:31N 54°09' E 012°08'0 0.0
2015-Jul-31 03:22N 54°09' E 012°08'0 0.0
2015-Jul-31 01:22N 54°09' E 012°08'0 0.0
2015-Jul-31 00:31N 54°09' E 012°08'0 0.0
2015-Jul-30 23:19N 54°09' E 012°08'0 0.0
2015-Jul-30 21:25N 54°09' E 012°08'0 0.0
2015-Jul-30 20:31N 54°09' E 012°08'0 0.0
2015-Jul-30 19:28N 54°09' E 012°08'0 0.0
2015-Jul-30 18:31N 54°09' E 012°08'0 0.0
2015-Jul-30 17:19N 54°09' E 012°08'0 0.0
2015-Jul-30 16:16N 54°09' E 012°08'0 0.0
2015-Jul-30 15:16N 54°09' E 012°08'0 0.0
2015-Jul-30 14:25N 54°09' E 012°08'0 0.0
2015-Jul-30 13:28N 54°09' E 012°08'0 0.0
2015-Jul-30 12:31N 54°09' E 012°08'0 0.0
2015-Jul-30 11:31N 54°09' E 012°08'0 0.0
2015-Jul-30 10:22N 54°09' E 012°08'0 0.2
2015-Jul-30 09:33N 54°10' E 012°08'8 8.1
2015-Jul-30 08:33N 54°17' E 012°01'9 9.3
2015-Jul-30 07:33N 54°26' E 012°00'9 9.3
2015-Jul-30 06:33N 54°32' E 012°13'6012.0
2015-Jul-30 01:33N 55°00' E 013°44'1212.2
2015-Jul-30 00:33N 55°04' E 014°04'1212.2
2015-Jul-29 23:33N 55°13' E 014°18'1212.4
2015-Jul-29 22:33N 55°23' E 014°32'1212.4
2015-Jul-29 21:33N 55°30' E 014°49'1212.3
2015-Jul-29 20:33N 55°36' E 015°08'12811.6
2015-Jul-29 09:33N 57°16' E 017°32'16312.5
2015-Jul-28 20:33N 59°43' E 019°46'1312.8
2015-Jul-28 19:33N 59°53' E 019°30'165 3.6
2015-Jul-26 21:33N 57°18' E 017°40'12711.5
2015-Jul-26 10:32N 55°38' E 015°21'1212.6
2015-Jul-26 09:33N 55°31' E 015°02'1212.5
2015-Jul-26 08:33N 55°25' E 014°43'1212.0
2015-Jul-26 07:33N 55°17' E 014°28'1111.4
2015-Jul-26 06:33N 55°11' E 014°12'1313.1
2015-Jul-26 05:33N 55°11' E 013°49'1513.2
2015-Jul-26 04:27N 55°12' E 013°23'1212.9
2015-Jul-26 03:33N 55°13' E 013°03'1312.8
2015-Jul-26 02:33N 55°17' E 012°42'1010.3
2015-Jul-26 01:33N 55°27' E 012°40'1010.5
2015-Jul-26 00:33N 55°36' E 012°51'9 9.2
2015-Jul-25 23:33N 55°45' E 012°51'1110.6
2015-Jul-25 22:34N 55°55' E 012°45'1111.0
2015-Jul-25 21:33N 56°05' E 012°36'1010.4
2015-Jul-25 20:33N 56°13' E 012°25'1312.5
2015-Jul-25 19:33N 56°25' E 012°18'1312.5
2015-Jul-25 18:33N 56°37' E 012°12'1212.1
2015-Jul-25 17:33N 56°49' E 012°07'1212.0
2015-Jul-25 16:32N 57°00' E 012°01'1212.5
2015-Jul-25 15:33N 57°12' E 011°54'1312.6
2015-Jul-25 14:33N 57°24' E 011°44'9 9.1
2015-Jul-25 13:34N 57°32' E 011°37'1111.1
2015-Jul-25 12:33N 57°41' E 011°50'2 1.5
2015-Jul-25 11:32N 57°41' E 011°52'0 0.0
2015-Jul-25 10:32N 57°41' E 011°52'0 0.0
2015-Jul-25 09:32N 57°41' E 011°52'0 0.0
2015-Jul-25 08:32N 57°41' E 011°52'0 0.0
2015-Jul-25 07:32N 57°41' E 011°52'0 0.0
2015-Jul-25 06:32N 57°41' E 011°52'0 0.0
2015-Jul-25 05:32N 57°41' E 011°52'0 0.0
2015-Jul-25 04:32N 57°41' E 011°52'0 0.0
2015-Jul-25 03:32N 57°41' E 011°52'0 0.0
2015-Jul-25 02:32N 57°41' E 011°52'0 0.0
2015-Jul-25 01:29N 57°41' E 011°52'0 0.0
2015-Jul-25 00:32N 57°41' E 011°52'0 0.0
2015-Jul-24 23:32N 57°41' E 011°52'0 0.0
2015-Jul-24 22:32N 57°41' E 011°52'0 0.0
2015-Jul-24 21:32N 57°41' E 011°52'0 0.0
2015-Jul-24 20:32N 57°41' E 011°52'0 0.0
2015-Jul-24 19:32N 57°41' E 011°52'0 0.0
2015-Jul-24 18:32N 57°41' E 011°52'0 0.0
2015-Jul-24 17:32N 57°41' E 011°52'0 0.0
2015-Jul-24 16:32N 57°41' E 011°52'3 3.1
2015-Jul-24 15:33N 57°41' E 011°47'3 2.9
2015-Jul-24 14:31N 57°41' E 011°41'0 0.0
2015-Jul-24 13:31N 57°41' E 011°41'0 0.0
2015-Jul-24 12:31N 57°41' E 011°41'0 0.0
2015-Jul-24 11:31N 57°41' E 011°41'0 0.0
2015-Jul-24 10:31N 57°41' E 011°41'0 0.0
2015-Jul-24 09:31N 57°41' E 011°41'0 0.0
2015-Jul-24 08:31N 57°41' E 011°41'0 0.0
2015-Jul-24 07:31N 57°41' E 011°41'0 0.0
2015-Jul-24 06:31N 57°41' E 011°41'0 0.0
2015-Jul-24 05:31N 57°41' E 011°41'0 0.0
2015-Jul-24 04:31N 57°41' E 011°41'0 0.0
2015-Jul-24 03:31N 57°41' E 011°41'0 0.0
2015-Jul-24 02:31N 57°41' E 011°41'0 0.0
2015-Jul-24 01:31N 57°41' E 011°41'0 0.0
2015-Jul-24 00:31N 57°41' E 011°41'0 0.0
2015-Jul-23 23:31N 57°41' E 011°41'0 0.0
2015-Jul-23 22:31N 57°41' E 011°41'0 0.0
2015-Jul-23 21:31N 57°41' E 011°41'0 0.0
2015-Jul-23 20:31N 57°41' E 011°41'0 0.0
2015-Jul-23 19:31N 57°41' E 011°41'0 0.0
2015-Jul-23 18:31N 57°41' E 011°41'0 0.0
2015-Jul-23 17:31N 57°41' E 011°41'0 0.0
2015-Jul-23 16:31N 57°41' E 011°41'0 0.0
2015-Jul-23 15:31N 57°41' E 011°41'0 0.0
2015-Jul-23 14:31N 57°41' E 011°41'0 0.0
2015-Jul-23 13:31N 57°41' E 011°41'0 0.0
2015-Jul-23 12:31N 57°41' E 011°41'0 0.0
2015-Jul-23 11:31N 57°41' E 011°41'0 0.0
2015-Jul-23 10:31N 57°41' E 011°41'0 0.0
2015-Jul-23 09:31N 57°41' E 011°41'0 0.0
2015-Jul-23 08:31N 57°41' E 011°41'0 0.0
2015-Jul-23 07:31N 57°41' E 011°41'0 0.0
2015-Jul-23 06:31N 57°41' E 011°41'0 0.0
2015-Jul-23 05:31N 57°41' E 011°41'0 0.0
2015-Jul-23 04:31N 57°41' E 011°41'0 0.0
2015-Jul-23 03:31N 57°41' E 011°41'0 0.0
2015-Jul-23 02:31N 57°41' E 011°41'0 0.0
2015-Jul-23 01:31N 57°41' E 011°41'0 0.0
2015-Jul-23 00:31N 57°41' E 011°41'0 0.0
2015-Jul-22 23:31N 57°41' E 011°41'0 0.0
2015-Jul-22 22:31N 57°41' E 011°41'0 0.1
2015-Jul-22 21:31N 57°41' E 011°41'0 0.0
2015-Jul-22 20:31N 57°41' E 011°41'0 0.0
2015-Jul-22 19:31N 57°41' E 011°41'0 0.0
2015-Jul-22 18:31N 57°41' E 011°41'0 0.0
2015-Jul-22 17:31N 57°41' E 011°41'0 0.0
2015-Jul-22 16:31N 57°41' E 011°41'3 3.1
2015-Jul-22 15:34N 57°41' E 011°47'3 3.2
2015-Jul-22 14:31N 57°41' E 011°53'0 0.0
2015-Jul-22 13:31N 57°41' E 011°53'0 0.0
2015-Jul-22 12:31N 57°41' E 011°53'0 0.0
2015-Jul-22 11:31N 57°41' E 011°53'0 0.0
2015-Jul-22 10:31N 57°41' E 011°53'0 0.0
2015-Jul-22 09:31N 57°41' E 011°53'0 0.0
2015-Jul-22 08:31N 57°41' E 011°53'0 0.0
2015-Jul-22 07:31N 57°41' E 011°53'0 0.0
2015-Jul-22 06:31N 57°41' E 011°53'0 0.0
2015-Jul-22 05:31N 57°41' E 011°53'0 0.0
2015-Jul-22 04:31N 57°41' E 011°53'0 0.0
2015-Jul-22 03:31N 57°41' E 011°53'0 0.0
2015-Jul-22 02:31N 57°41' E 011°53'0 0.0
2015-Jul-22 01:31N 57°41' E 011°53'0 0.0
2015-Jul-22 00:31N 57°41' E 011°53'0 0.0
2015-Jul-21 23:31N 57°41' E 011°53'0 0.0
2015-Jul-21 22:31N 57°41' E 011°53'0 0.0
2015-Jul-21 21:31N 57°41' E 011°53'0 0.0
2015-Jul-21 20:31N 57°41' E 011°53'0 0.0
2015-Jul-21 19:31N 57°41' E 011°53'0 0.0
2015-Jul-21 18:31N 57°41' E 011°53'0 0.0
2015-Jul-21 17:31N 57°41' E 011°53'0 0.0
2015-Jul-21 16:31N 57°41' E 011°53'0 0.0
2015-Jul-21 15:32N 57°41' E 011°53'5 4.7
2015-Jul-21 14:33N 57°39' E 011°45'8 8.3
2015-Jul-21 13:33N 57°42' E 011°30'1312.9
2015-Jul-21 12:33N 57°53' E 011°20'1211.9
2015-Jul-21 11:34N 58°05' E 011°15'1111.2
2015-Jul-21 10:33N 58°16' E 011°15'8 7.8
2015-Jul-21 09:33N 58°21' E 011°26'  

Dump ship's entire track history